createdAt,value
2018-06-10T00:02:15.617Z,53.32
2018-06-10T00:04:45.278Z,53.46
2018-06-10T00:07:14.905Z,53.40
2018-06-10T00:09:44.406Z,56.13
2018-06-10T00:12:14.041Z,55.77
2018-06-10T00:14:43.707Z,58.25
2018-06-10T00:17:13.359Z,59.43
2018-06-10T00:19:43.015Z,61.38
2018-06-10T00:22:12.385Z,59.62
2018-06-10T00:24:42.487Z,59.70
2018-06-10T00:27:12.107Z,59.89
2018-06-10T00:29:41.708Z,60.97
2018-06-10T00:32:11.337Z,60.55
2018-06-10T00:34:41.031Z,60.94
2018-06-10T00:37:10.515Z,61.82
2018-06-10T00:39:40.146Z,58.91
2018-06-10T00:42:09.739Z,57.58
2018-06-10T00:44:39.179Z,57.32
2018-06-10T00:47:08.768Z,57.14
2018-06-10T00:49:38.425Z,56.95
2018-06-10T00:52:08.111Z,56.26
2018-06-10T00:54:37.833Z,56.79
2018-06-10T00:57:07.353Z,57.49
2018-06-10T00:59:36.897Z,56.88
2018-06-10T01:02:06.473Z,56.34
2018-06-10T01:04:36.027Z,55.79
2018-06-10T01:07:05.801Z,54.96
2018-06-10T01:09:35.406Z,55.83
2018-06-10T01:12:05.094Z,55.18
2018-06-10T01:14:34.516Z,57.59
2018-06-10T01:17:04.168Z,60.08
2018-06-10T01:19:33.852Z,60.04
2018-06-10T01:22:03.483Z,58.35
2018-06-10T01:24:32.915Z,57.51
2018-06-10T01:27:02.645Z,58.12
2018-06-10T01:29:32.647Z,58.32
2018-06-10T01:32:02.195Z,60.14
2018-06-10T01:34:31.832Z,62.29
2018-06-10T01:37:01.466Z,63.93
2018-06-10T01:39:31.063Z,60.77
2018-06-10T01:42:00.593Z,60.54
2018-06-10T01:44:30.155Z,61.21
2018-06-10T01:46:59.731Z,59.46
2018-06-10T01:49:29.436Z,59.30
2018-06-10T01:51:59.069Z,58.60
2018-06-10T01:54:28.547Z,57.59
2018-06-10T01:56:58.028Z,58.93
2018-06-10T01:59:27.667Z,60.05
2018-06-10T02:01:57.322Z,59.69
2018-06-10T02:04:26.967Z,57.81
2018-06-10T02:06:56.488Z,58.49
2018-06-10T02:09:26.252Z,57.22
2018-06-10T02:11:55.834Z,57.66
2018-06-10T02:14:25.361Z,57.19
2018-06-10T02:16:54.926Z,60.52
2018-06-10T02:19:24.606Z,59.78
2018-06-10T02:21:54.228Z,61.95
2018-06-10T02:24:23.716Z,60.75
2018-06-10T02:26:53.392Z,59.54
2018-06-10T02:29:23.132Z,59.01
2018-06-10T02:31:52.747Z,57.79
2018-06-10T02:34:22.371Z,58.39
2018-06-10T02:36:51.992Z,58.30
2018-06-10T02:39:21.613Z,57.07
2018-06-10T02:41:51.033Z,56.62
2018-06-10T02:44:20.936Z,56.92
2018-06-10T02:46:50.564Z,56.50
2018-06-10T02:49:20.195Z,57.12
2018-06-10T02:51:49.724Z,58.64
2018-06-10T02:54:19.370Z,57.82
2018-06-10T02:56:49.047Z,57.37
2018-06-10T02:59:18.621Z,58.10
2018-06-10T03:01:48.111Z,56.67
2018-06-10T03:04:17.724Z,58.16
2018-06-10T03:06:47.357Z,56.69
2018-06-10T03:09:16.899Z,56.83
2018-06-10T03:11:46.457Z,58.70
2018-06-10T03:14:15.913Z,57.68
2018-06-10T03:16:45.739Z,57.48
2018-06-10T03:19:15.133Z,56.97
2018-06-10T03:21:44.675Z,57.70
2018-06-10T03:24:14.218Z,60.22
2018-06-10T03:26:43.771Z,61.96
2018-06-10T03:29:13.459Z,61.09
2018-06-10T03:31:43.388Z,60.41
2018-06-10T03:34:12.923Z,61.85
2018-06-10T03:36:42.401Z,61.87
2018-06-10T03:39:11.852Z,59.52
2018-06-10T03:41:41.323Z,57.94
2018-06-10T03:44:10.866Z,58.75
2018-06-10T03:46:40.476Z,59.18
2018-06-10T03:49:10.170Z,58.42
2018-06-10T03:51:39.658Z,60.57
2018-06-10T03:54:09.628Z,59.73
2018-06-10T03:56:39.092Z,60.67
2018-06-10T03:59:08.699Z,61.02
2018-06-10T04:01:38.324Z,60.86
2018-06-10T04:04:07.889Z,60.47
2018-06-10T04:06:37.363Z,59.65
2018-06-10T04:09:08.484Z,58.73
2018-06-10T04:11:38.105Z,59.30
2018-06-10T04:14:07.794Z,58.02
2018-06-10T04:16:37.365Z,58.64
2018-06-10T04:19:06.846Z,59.14
2018-06-10T04:21:36.416Z,59.14
2018-06-10T04:24:05.967Z,57.65
2018-06-10T04:26:35.563Z,58.67
2018-06-10T04:29:05.129Z,58.45
2018-06-10T04:31:34.608Z,57.90
2018-06-10T04:34:04.479Z,56.80
2018-06-10T04:36:34.025Z,55.72
2018-06-10T04:39:03.735Z,56.98
2018-06-10T04:41:33.275Z,56.35
2018-06-10T04:44:02.940Z,56.39
2018-06-10T04:46:32.534Z,54.89
2018-06-10T04:49:02.192Z,54.32
2018-06-10T04:51:31.806Z,53.70
2018-06-10T04:54:01.425Z,53.53
2018-06-10T04:56:30.952Z,52.06
2018-06-10T04:59:00.564Z,52.49
2018-06-10T05:01:30.131Z,52.06
2018-06-10T05:03:59.800Z,49.88
2018-06-10T05:06:29.475Z,52.78
2018-06-10T05:08:59.069Z,53.54
2018-06-10T05:11:28.539Z,52.66
2018-06-10T05:13:58.137Z,51.70
2018-06-10T05:16:27.688Z,50.92
2018-06-10T05:18:57.262Z,52.38
2018-06-10T05:21:26.832Z,52.36
2018-06-10T05:23:56.427Z,51.20
2018-06-10T05:26:26.079Z,50.63
2018-06-10T05:28:55.745Z,50.32
2018-06-10T05:31:25.198Z,50.98
2018-06-10T05:33:54.857Z,50.08
2018-06-10T05:36:24.781Z,49.20
2018-06-10T05:38:54.321Z,48.76
2018-06-10T05:41:23.843Z,48.47
2018-06-10T05:43:53.488Z,49.05
2018-06-10T05:46:23.078Z,49.93
2018-06-10T05:48:52.624Z,50.63
2018-06-10T05:51:22.413Z,51.14
2018-06-10T05:53:51.992Z,50.98
2018-06-10T05:56:21.515Z,50.44
2018-06-10T05:58:51.279Z,50.96
2018-06-10T06:01:20.886Z,52.45
2018-06-10T06:03:50.489Z,50.42
2018-06-10T06:06:20.036Z,50.47
2018-06-10T06:08:49.695Z,48.86
2018-06-10T06:11:19.295Z,48.39
2018-06-10T06:13:48.924Z,48.43
2018-06-10T06:16:18.592Z,48.65
2018-06-10T06:18:48.188Z,47.53
2018-06-10T06:21:17.619Z,47.59
2018-06-10T06:23:47.284Z,47.05
2018-06-10T06:26:16.801Z,45.43
2018-06-10T06:28:46.697Z,46.14
2018-06-10T06:31:16.129Z,46.60
2018-06-10T06:33:45.669Z,46.45
2018-06-10T06:36:15.304Z,46.62
2018-06-10T06:38:45.225Z,47.75
2018-06-10T06:41:14.783Z,45.26
2018-06-10T06:43:44.335Z,45.96
2018-06-10T06:46:13.869Z,46.75
2018-06-10T06:48:43.402Z,46.80
2018-06-10T06:51:12.832Z,47.49
2018-06-10T06:53:42.471Z,46.72
2018-06-10T06:56:12.144Z,46.44
2018-06-10T06:58:41.772Z,46.45
2018-06-10T07:01:11.329Z,46.64
2018-06-10T07:03:40.994Z,47.35
2018-06-10T07:06:10.723Z,46.32
2018-06-10T07:08:40.428Z,44.58
2018-06-10T07:11:10.123Z,43.50
2018-06-10T07:13:39.745Z,44.95
2018-06-10T07:16:09.471Z,45.24
2018-06-10T07:18:39.133Z,45.13
2018-06-10T07:21:08.795Z,45.01
2018-06-10T07:23:38.529Z,44.89
2018-06-10T07:26:08.187Z,42.84
2018-06-10T07:28:37.752Z,42.24
2018-06-10T07:31:07.578Z,40.61
2018-06-10T07:33:37.138Z,42.15
2018-06-10T07:36:06.800Z,42.38
2018-06-10T07:38:36.452Z,43.60
2018-06-10T07:41:06.402Z,43.42
2018-06-10T07:43:36.031Z,42.91
2018-06-10T07:46:05.723Z,41.78
2018-06-10T07:48:35.381Z,41.50
2018-06-10T07:51:05.071Z,40.14
2018-06-10T07:53:34.708Z,40.73
2018-06-10T07:56:04.333Z,41.47
2018-06-10T07:58:34.031Z,41.63
2018-06-10T08:01:03.617Z,41.80
2018-06-10T08:03:33.303Z,43.02
2018-06-10T08:06:03.174Z,41.87
2018-06-10T08:08:32.845Z,41.28
2018-06-10T08:11:02.396Z,40.40
2018-06-10T08:13:32.031Z,40.03
2018-06-10T08:16:01.735Z,40.75
2018-06-10T08:18:31.372Z,40.92
2018-06-10T08:21:00.945Z,42.54
2018-06-10T08:23:30.481Z,42.57
2018-06-10T08:26:00.128Z,42.03
2018-06-10T08:28:29.768Z,41.67
2018-06-10T08:30:59.421Z,41.58
2018-06-10T08:33:29.246Z,38.89
2018-06-10T08:35:58.975Z,40.56
2018-06-10T08:38:28.702Z,37.53
2018-06-10T08:40:58.255Z,36.32
2018-06-10T08:43:28.118Z,37.02
2018-06-10T08:45:57.776Z,38.24
2018-06-10T08:48:27.318Z,36.07
2018-06-10T08:50:57.052Z,37.68
2018-06-10T08:53:26.610Z,37.90
2018-06-10T08:55:56.247Z,37.29
2018-06-10T08:58:25.900Z,39.57
2018-06-10T09:00:55.591Z,40.08
2018-06-10T09:03:25.227Z,38.63
2018-06-10T09:05:54.901Z,37.90
2018-06-10T09:08:24.551Z,36.75
2018-06-10T09:10:54.089Z,36.91
2018-06-10T09:13:23.627Z,37.36
2018-06-10T09:15:53.258Z,37.97
2018-06-10T09:18:22.819Z,36.90
2018-06-10T09:20:52.475Z,37.07
2018-06-10T09:23:22.159Z,38.04
2018-06-10T09:25:51.805Z,37.49
2018-06-10T09:28:21.371Z,39.49
2018-06-10T09:30:50.912Z,38.91
2018-06-10T09:33:20.575Z,38.59
2018-06-10T09:35:50.348Z,38.54
2018-06-10T09:38:19.992Z,38.59
2018-06-10T09:40:49.647Z,37.78
2018-06-10T09:43:19.331Z,37.74
2018-06-10T09:45:49.339Z,37.92
2018-06-10T09:48:19.006Z,36.83
2018-06-10T09:50:48.646Z,36.40
2018-06-10T09:53:18.324Z,34.12
2018-06-10T09:55:47.965Z,35.00
2018-06-10T09:58:17.565Z,34.55
2018-06-10T10:00:47.215Z,35.99
2018-06-10T10:03:16.868Z,36.78
2018-06-10T10:05:46.546Z,35.80
2018-06-10T10:08:16.207Z,37.30
2018-06-10T10:10:45.783Z,37.52
2018-06-10T10:13:15.448Z,38.51
2018-06-10T10:15:45.104Z,38.58
2018-06-10T10:18:14.668Z,39.42
2018-06-10T10:20:44.255Z,40.76
2018-06-10T10:23:13.861Z,41.78
2018-06-10T10:25:43.460Z,41.11
2018-06-10T10:28:13.060Z,41.90
2018-06-10T10:30:42.501Z,41.22
2018-06-10T10:33:12.080Z,41.76
2018-06-10T10:35:41.614Z,41.88
2018-06-10T10:38:11.172Z,42.70
2018-06-10T10:40:40.785Z,42.54
2018-06-10T10:43:10.239Z,44.03
2018-06-10T10:45:39.835Z,46.09
2018-06-10T10:48:09.882Z,45.69
2018-06-10T10:50:39.533Z,45.63
2018-06-10T10:53:09.140Z,46.68
2018-06-10T10:55:38.712Z,46.29
2018-06-10T10:58:08.282Z,45.49
2018-06-10T11:00:37.976Z,43.89
2018-06-10T11:03:07.369Z,44.00
2018-06-10T11:05:36.987Z,43.36
2018-06-10T11:08:06.487Z,45.43
2018-06-10T11:10:36.166Z,45.50
2018-06-10T11:13:05.810Z,44.26
2018-06-10T11:15:35.249Z,41.97
2018-06-10T11:18:04.842Z,38.78
2018-06-10T11:20:34.524Z,39.07
2018-06-10T11:23:04.135Z,36.83
2018-06-10T11:25:33.737Z,33.19
2018-06-10T11:28:03.682Z,33.13
2018-06-10T11:30:33.377Z,33.02
2018-06-10T11:33:02.943Z,31.87
2018-06-10T11:35:32.546Z,31.72
2018-06-10T11:38:02.122Z,29.84
2018-06-10T11:40:31.642Z,31.34
2018-06-10T11:43:01.201Z,32.02
2018-06-10T11:45:30.811Z,32.43
2018-06-10T11:48:00.415Z,32.47
2018-06-10T11:50:30.598Z,32.19
2018-06-10T11:53:00.056Z,36.97
2018-06-10T11:55:29.622Z,38.01
2018-06-10T11:57:59.297Z,36.97
2018-06-10T12:00:28.929Z,36.58
2018-06-10T12:02:58.455Z,37.91
2018-06-10T12:05:28.056Z,39.08
2018-06-10T12:07:57.638Z,38.67
2018-06-10T12:10:28.254Z,38.46
2018-06-10T12:12:57.819Z,37.56
2018-06-10T12:15:27.428Z,36.61
2018-06-10T12:17:57.045Z,35.42
2018-06-10T12:20:26.578Z,36.08
2018-06-10T12:22:56.086Z,35.28
2018-06-10T12:25:25.566Z,34.43
2018-06-10T12:27:55.016Z,33.68
2018-06-10T12:30:24.643Z,34.31
2018-06-10T12:32:54.287Z,31.98
2018-06-10T12:35:23.821Z,32.53
2018-06-10T12:37:53.256Z,32.15
2018-06-10T12:40:22.860Z,32.04
2018-06-10T12:42:52.476Z,32.28
2018-06-10T12:45:22.024Z,31.26
2018-06-10T12:47:51.562Z,32.83
2018-06-10T12:50:21.113Z,33.40
2018-06-10T12:52:50.580Z,34.41
2018-06-10T12:55:20.060Z,34.88
2018-06-10T12:57:49.726Z,34.72
2018-06-10T13:00:19.324Z,34.59
2018-06-10T13:02:49.000Z,34.18
2018-06-10T13:05:18.655Z,34.94
2018-06-10T13:07:48.198Z,34.60
2018-06-10T13:10:17.627Z,35.23
2018-06-10T13:12:47.224Z,34.84
2018-06-10T13:15:16.831Z,35.81
2018-06-10T13:17:46.327Z,34.73
2018-06-10T13:20:15.928Z,33.37
2018-06-10T13:22:45.458Z,33.32
2018-06-10T13:25:14.948Z,33.98
2018-06-10T13:27:44.598Z,35.67
2018-06-10T13:30:14.167Z,33.59
2018-06-10T13:32:43.812Z,34.37
2018-06-10T13:35:13.245Z,35.03
2018-06-10T13:37:42.807Z,34.42
2018-06-10T13:40:12.307Z,33.75
2018-06-10T13:42:41.841Z,33.11
2018-06-10T13:45:11.442Z,34.12
2018-06-10T13:47:40.798Z,35.42
2018-06-10T13:50:10.345Z,36.59
2018-06-10T13:52:39.920Z,34.79
2018-06-10T13:55:09.765Z,37.03
2018-06-10T13:57:39.355Z,38.90
2018-06-10T14:00:08.784Z,40.30
2018-06-10T14:02:38.382Z,40.88
2018-06-10T14:05:07.964Z,41.15
2018-06-10T14:07:37.400Z,40.88
2018-06-10T14:10:06.849Z,40.81
2018-06-10T14:12:36.403Z,40.85
2018-06-10T14:15:06.109Z,40.21
2018-06-10T14:17:35.744Z,41.67
2018-06-10T14:20:05.316Z,41.39
2018-06-10T14:22:34.800Z,40.38
2018-06-10T14:25:04.518Z,41.27
2018-06-10T14:27:34.116Z,40.81
2018-06-10T14:30:03.745Z,40.40
2018-06-10T14:32:33.407Z,40.14
2018-06-10T14:35:03.160Z,39.92
2018-06-10T14:37:32.707Z,40.10
2018-06-10T14:40:02.223Z,38.78
2018-06-10T14:42:32.084Z,38.59
2018-06-10T14:45:01.750Z,39.81
2018-06-10T14:47:31.393Z,39.40
2018-06-10T14:50:00.926Z,40.03
2018-06-10T14:52:30.515Z,39.73
2018-06-10T14:55:00.174Z,39.88
2018-06-10T14:57:29.880Z,40.35
2018-06-10T14:59:59.499Z,40.22
2018-06-10T15:02:29.031Z,39.44
2018-06-10T15:04:58.547Z,37.87
2018-06-10T15:07:28.131Z,38.13
2018-06-10T15:09:57.705Z,37.63
2018-06-10T15:12:27.338Z,38.46
2018-06-10T15:14:56.930Z,38.56
2018-06-10T15:17:26.403Z,37.89
2018-06-10T15:19:56.057Z,39.17
2018-06-10T15:22:25.504Z,39.94
2018-06-10T15:24:55.087Z,39.44
2018-06-10T15:27:24.530Z,39.03
2018-06-10T15:29:54.185Z,39.97
2018-06-10T15:32:23.798Z,39.52
2018-06-10T15:34:53.328Z,40.02
2018-06-10T15:37:22.902Z,39.79
2018-06-10T15:39:52.532Z,40.30
2018-06-10T15:42:22.108Z,41.44
2018-06-10T15:44:51.570Z,41.24
2018-06-10T15:47:21.347Z,42.17
2018-06-10T15:49:50.768Z,42.20
2018-06-10T15:52:20.418Z,42.54
2018-06-10T15:54:50.003Z,43.38
2018-06-10T15:57:19.596Z,43.60
2018-06-10T15:59:49.418Z,44.06
2018-06-10T16:02:18.965Z,43.80
2018-06-10T16:04:48.466Z,44.15
2018-06-10T16:07:17.901Z,44.42
2018-06-10T16:09:47.509Z,45.68
2018-06-10T16:12:17.067Z,46.71
2018-06-10T16:14:46.680Z,47.35
2018-06-10T16:17:16.509Z,47.28
2018-06-10T16:19:45.999Z,47.61
2018-06-10T16:22:15.644Z,46.67
2018-06-10T16:24:45.196Z,45.75
2018-06-10T16:27:14.581Z,46.17
2018-06-10T16:29:44.197Z,46.28
2018-06-10T16:32:13.815Z,46.26
2018-06-10T16:34:43.355Z,46.96
2018-06-10T16:37:12.781Z,47.44
2018-06-10T16:39:42.413Z,47.72
2018-06-10T16:42:11.930Z,48.33
2018-06-10T16:44:41.594Z,49.22
2018-06-10T16:47:11.791Z,50.05
2018-06-10T16:49:42.317Z,48.32
2018-06-10T16:52:12.049Z,46.82
2018-06-10T16:54:41.583Z,47.49
2018-06-10T16:57:11.224Z,48.05
2018-06-10T16:59:40.657Z,48.16
2018-06-10T17:02:10.549Z,49.86
2018-06-10T17:04:40.061Z,50.84
2018-06-10T17:07:09.496Z,51.42
2018-06-10T17:09:39.010Z,51.45
2018-06-10T17:12:08.707Z,50.81
2018-06-10T17:14:38.232Z,50.14
2018-06-10T17:17:07.767Z,49.12
2018-06-10T17:19:37.403Z,48.52
2018-06-10T17:22:06.871Z,48.28
2018-06-10T17:24:36.473Z,48.08
2018-06-10T17:27:06.076Z,46.86
2018-06-10T17:29:35.489Z,47.94
2018-06-10T17:32:05.075Z,48.76
2018-06-10T17:34:34.679Z,49.17
2018-06-10T17:37:04.319Z,48.37
2018-06-10T17:39:34.772Z,48.93
2018-06-10T17:42:05.068Z,48.74
2018-06-10T17:44:35.415Z,49.11
2018-06-10T17:47:05.702Z,48.52
2018-06-10T17:49:35.809Z,48.74
2018-06-10T17:52:06.764Z,51.43
2018-06-10T17:54:37.098Z,53.35
2018-06-10T17:57:07.438Z,55.42
2018-06-10T17:59:37.615Z,54.20
2018-06-10T18:02:08.624Z,54.63
2018-06-10T18:04:38.611Z,52.01
2018-06-10T18:07:08.181Z,53.77
2018-06-10T18:09:37.711Z,56.73
2018-06-10T18:12:07.316Z,61.56
2018-06-10T18:14:36.934Z,65.51
2018-06-10T18:17:06.605Z,66.76
2018-06-10T18:19:36.220Z,70.57
2018-06-10T18:22:05.904Z,67.92
2018-06-10T18:24:35.557Z,68.69
2018-06-10T18:27:05.192Z,68.33
2018-06-10T18:29:34.904Z,68.54
2018-06-10T18:32:04.596Z,67.61
2018-06-10T18:34:34.190Z,66.63
2018-06-10T18:37:03.772Z,66.57
2018-06-10T18:39:33.374Z,65.61
2018-06-10T18:42:02.862Z,64.88
2018-06-10T18:44:32.506Z,66.74
2018-06-10T18:47:01.930Z,67.96
2018-06-10T18:49:31.522Z,69.34
2018-06-10T18:52:01.113Z,67.71
2018-06-10T18:54:30.796Z,66.51
2018-06-10T18:57:00.403Z,66.89
2018-06-10T18:59:30.021Z,66.48
2018-06-10T19:01:59.682Z,66.47
2018-06-10T19:04:29.200Z,67.57
2018-06-10T19:06:58.972Z,66.40
2018-06-10T19:09:28.662Z,66.85
2018-06-10T19:11:58.286Z,67.37
2018-06-10T19:14:27.975Z,64.31
2018-06-10T19:16:57.551Z,63.56
2018-06-10T19:19:27.251Z,63.90
2018-06-10T19:21:57.013Z,64.58
2018-06-10T19:24:26.623Z,65.86
2018-06-10T19:26:56.242Z,64.95
2018-06-10T19:29:25.819Z,64.02
2018-06-10T19:31:55.461Z,63.76
2018-06-10T19:34:24.990Z,62.40
2018-06-10T19:36:54.541Z,61.71
2018-06-10T19:39:24.125Z,61.63
2018-06-10T19:41:53.689Z,62.51
2018-06-10T19:44:23.272Z,62.76
2018-06-10T19:46:52.910Z,63.13
2018-06-10T19:49:22.459Z,62.47
2018-06-10T19:51:52.163Z,61.73
2018-06-10T19:54:21.740Z,62.40
2018-06-10T19:56:51.433Z,61.74
2018-06-10T19:59:21.088Z,63.16
2018-06-10T20:01:50.703Z,63.75
2018-06-10T20:04:20.260Z,67.27
2018-06-10T20:06:49.749Z,70.21
2018-06-10T20:09:20.729Z,69.56
2018-06-10T20:11:50.234Z,70.44
2018-06-10T20:14:19.652Z,69.15
2018-06-10T20:16:49.271Z,69.29
2018-06-10T20:19:18.832Z,65.90
2018-06-10T20:21:48.304Z,65.51
2018-06-10T20:24:17.863Z,67.66
2018-06-10T20:26:47.379Z,67.82
2018-06-10T20:29:16.928Z,64.85
2018-06-10T20:31:46.420Z,64.62
2018-06-10T20:34:15.968Z,68.07
2018-06-10T20:36:45.471Z,65.02
2018-06-10T20:39:14.992Z,68.31
2018-06-10T20:41:44.600Z,68.79
2018-06-10T20:44:14.204Z,66.82
2018-06-10T20:46:43.717Z,65.47
2018-06-10T20:49:13.188Z,67.19
2018-06-10T20:51:42.771Z,68.61
2018-06-10T20:54:12.424Z,67.27
2018-06-10T20:56:41.958Z,67.05
2018-06-10T20:59:11.334Z,67.05
2018-06-10T21:01:41.070Z,67.05
2018-06-10T21:04:10.625Z,69.05
2018-06-10T21:06:40.234Z,68.86
2018-06-10T21:09:09.859Z,68.62
2018-06-10T21:11:39.940Z,68.99
2018-06-10T21:14:09.480Z,68.74
2018-06-10T21:16:39.084Z,69.01
2018-06-10T21:19:08.735Z,67.55
2018-06-10T21:21:38.267Z,65.21
2018-06-10T21:24:07.831Z,67.92
2018-06-10T21:26:37.472Z,67.43
2018-06-10T21:29:06.909Z,68.04
2018-06-10T21:31:36.380Z,68.86
2018-06-10T21:34:05.977Z,70.29
2018-06-10T21:36:35.526Z,70.73
2018-06-10T21:39:07.051Z,69.05
2018-06-10T21:41:36.800Z,69.28
2018-06-10T21:44:06.458Z,70.10
2018-06-10T21:46:36.989Z,67.72
2018-06-10T21:49:06.817Z,67.85
2018-06-10T21:51:37.723Z,66.01
2018-06-10T21:54:07.280Z,65.42
2018-06-10T21:56:36.898Z,64.75
2018-06-10T21:59:07.295Z,64.75
2018-06-10T22:01:36.975Z,67.51
2018-06-10T22:04:06.540Z,66.20
2018-06-10T22:06:36.027Z,65.63
2018-06-10T22:09:07.532Z,65.22
2018-06-10T22:11:37.707Z,66.78
2018-06-10T22:14:07.662Z,68.65
2018-06-10T22:16:37.149Z,68.95
2018-06-10T22:19:07.056Z,69.76
2018-06-10T22:21:36.714Z,67.20
2018-06-10T22:24:06.326Z,65.79
2018-06-10T22:26:35.851Z,66.64
2018-06-10T22:29:05.435Z,67.05
2018-06-10T22:31:35.020Z,66.37
2018-06-10T22:34:04.651Z,64.19
2018-06-10T22:36:34.306Z,66.46
2018-06-10T22:39:04.460Z,65.02
2018-06-10T22:41:33.966Z,64.94
2018-06-10T22:44:03.470Z,65.65
2018-06-10T22:46:32.984Z,63.73
2018-06-10T22:49:02.867Z,63.83
2018-06-10T22:51:32.541Z,63.52
2018-06-10T22:54:38.866Z,63.89
2018-06-10T22:57:08.746Z,63.35
2018-06-10T22:59:38.353Z,63.11
2018-06-10T23:02:08.957Z,63.63
2018-06-10T23:04:38.609Z,63.53
2018-06-10T23:07:08.251Z,63.96
2018-06-10T23:09:37.791Z,62.70
2018-06-10T23:12:07.575Z,64.98
2018-06-10T23:14:37.197Z,65.68
2018-06-10T23:17:06.800Z,65.45
2018-06-10T23:19:36.377Z,65.15
2018-06-10T23:22:05.987Z,67.49
2018-06-10T23:24:35.361Z,69.78
2018-06-10T23:27:04.971Z,70.05
2018-06-10T23:29:34.578Z,67.30
2018-06-10T23:32:04.112Z,68.13
2018-06-10T23:34:33.631Z,65.64
2018-06-10T23:37:03.203Z,65.66
2018-06-10T23:39:32.828Z,64.30
2018-06-10T23:42:02.339Z,64.56
2018-06-10T23:44:31.862Z,63.89
2018-06-10T23:47:01.371Z,63.90
2018-06-10T23:49:30.849Z,63.33
2018-06-10T23:52:00.370Z,66.98
2018-06-10T23:54:29.933Z,64.27
2018-06-10T23:56:59.417Z,63.88
2018-06-10T23:59:28.945Z,63.23
